Flight Track Log - Related Links

Times and Time Zones

All times are in EDT time to prevent confusion due to time zone crossing. See the FLG4262 flight status page for this flight to view local times or setup timezone preferences in your user account.

Time Position Orientation Groundspeed Altitude Reporting Facility
EDT Latitude Longitude Course Direction KTS MPH feet Rate Location/Type
Wed 05:14:49 PM 42.2772 -76.1742 290° West 275 316 6,900  Level New York Center
Wed 05:15:00 PM 42.2186 -76.3035 286° West  Level Estimated
Wed 05:15:49 PM 42.3094 -76.2861 291° West 280 322 8,000  Level New York Center
Wed 05:16:00 PM 42.2217 -76.4115 294° West  Level Estimated
Wed 05:16:50 PM 42.3381 -76.3867 291° West 280 322 10,400  Level New York Center
Wed 05:17:00 PM 42.2767 -76.4900 313° West  Level FlightAware Approximate
Wed 05:17:22 PM 42.3553 -76.4450 292° West 291 335 11,400  Level Cleveland Center
Wed 05:18:00 PM 42.2789 -76.5981 291° West  Level Estimated
Wed 05:18:24 PM 42.3869 -76.5611 290° West 319 367 12,800  Level Cleveland Center
Wed 05:19:26 PM 42.4197 -76.6853 290° West 345 397 14,300 1,403 Climbing Cleveland Center
Wed 05:20:28 PM 42.4553 -76.8122 291° West 360 414 15,700 1,306 Climbing Cleveland Center
Wed 05:21:30 PM 42.4889 -76.9428 289° West 369 425 17,000 1,248 Climbing Cleveland Center
Wed 05:22:33 PM 42.5247 -77.0756 290° West 375 432 18,300 1,392 Climbing Cleveland Center
Wed 05:23:35 PM 42.5672 -77.2358 290° West 380 437 19,900 1,258 Climbing Cleveland Center
Wed 05:24:37 PM 42.6025 -77.3694 290° West 378 435 20,900 968 Climbing Cleveland Center
Wed 05:25:39 PM 42.6386 -77.5081 290° West 391 450 21,900 968 Climbing Cleveland Center
Wed 05:26:41 PM 42.6736 -77.6417 290° West 393 452 22,900 1,016 Climbing Cleveland Center
Wed 05:27:43 PM 42.7181 -77.8086 290° West 406 467 24,000 532 Climbing Cleveland Center
Wed 05:28:45 PM 42.7558 -77.9575 289° West 420 483 24,000  Level Cleveland Center
Wed 05:29:47 PM 42.7947 -78.1131 289° West 435 501 24,000 194 Level Cleveland Center
Wed 05:30:49 PM 42.8153 -78.2744 280° West 436 502 24,400 774 Climbing Cleveland Center
Wed 05:31:51 PM 42.8089 -78.4683 267° West 429 494 25,600 774 Climbing Cleveland Center
Wed 05:32:53 PM 42.8047 -78.6281 268° West 425 489 26,000 192 Climbing Cleveland Center
Wed 05:33:56 PM 42.7997 -78.7953 268° West 440 506 26,000  Level Cleveland Center
Wed 05:34:58 PM 42.7944 -78.9600 268° West 437 503 26,000  Level Cleveland Center
Wed 05:36:00 PM 42.7875 -79.1278 267° West 444 511 26,000  Level Cleveland Center
Wed 05:37:02 PM 42.7808 -79.2908 267° West 435 501 26,000  Level Cleveland Center
Wed 05:38:04 PM 42.7736 -79.4872 267° West 433 498 26,000  Level Cleveland Center
Wed 05:39:06 PM 42.7653 -79.6506 266° West 434 499 26,000  Level Cleveland Center
Wed 05:40:08 PM 42.7592 -79.8142 267° West 433 498 26,000  Level Cleveland Center
Wed 05:41:10 PM 42.7517 -79.9819 267° West 434 499 26,000  Level Cleveland Center
Wed 05:42:12 PM 42.7433 -80.1483 266° West 437 503 26,000  Level Cleveland Center
Wed 05:43:14 PM 42.7347 -80.3106 266° West 429 494 26,000  Level Cleveland Center
Wed 05:44:17 PM 42.7264 -80.4781 266° West 440 506 26,000  Level Cleveland Center
Wed 05:45:19 PM 42.7158 -80.6631 266° West 425 489 26,000  Level Cleveland Center
Wed 05:46:21 PM 42.7086 -80.8306 267° West 437 503 26,000  Level Cleveland Center
Wed 05:47:23 PM 42.6936 -80.9928 263° West 432 497 26,000  Level Cleveland Center
Wed 05:48:25 PM 42.6736 -81.1586 261° West 441 507 26,000  Level Cleveland Center
Wed 05:49:27 PM 42.6550 -81.3261 261° West 445 512 26,000 -290 Level Cleveland Center
Wed 05:50:29 PM 42.6347 -81.4981 261° West 456 525 25,400 -823 Descending Cleveland Center
Wed 05:51:31 PM 42.6122 -81.6889 261° West 439 505 24,300 -1,016 Descending Cleveland Center
Wed 05:52:33 PM 42.6244 -81.8433 276° West 418 481 23,300 -1,452 Descending Cleveland Center
Wed 05:53:35 PM 42.6375 -81.9961 277° West 428 493 21,300 -2,177 Descending Cleveland Center
Wed 05:54:37 PM 42.5994 -82.1400 250° West 410 472 18,800 -2,618 Descending Cleveland Center
Wed 05:55:25 PM 42.5736 -82.2633 254° West 377 434 16,500 -2,419 Descending Cleveland Center
Wed 05:55:39 PM 42.5675 -82.2767 238° Southwest 391 450 16,300 -2,786 Descending Cleveland Center
Wed 05:56:21 PM 42.5442 -82.3869 254° West 370 426 13,900 -2,857 Descending Cleveland Center
Wed 05:56:42 PM 42.5372 -82.4100 248° West 375 432 13,300 -1,869 Descending Cleveland Center
Wed 05:57:22 PM 42.5139 -82.5189 254° West 367 422 12,000 -1,355 Descending Cleveland Center
Wed 05:57:44 PM 42.5075 -82.5400 248° West 368 423 11,900 -885 Descending Cleveland Center
Wed 05:58:23 PM 42.4739 -82.6411 246° West 360 414 11,100 -1,258 Descending Cleveland Center
Wed 05:58:46 PM 42.4575 -82.6831 242° Southwest 354 407 10,600 -1,279 Descending Cleveland Center
Wed 05:59:24 PM 42.4342 -82.7575 247° West 289 333 9,800 -1,258 Descending Cleveland Center
Wed 05:59:48 PM 42.4214 -82.7856 238° Southwest 310 357 9,300 -1,065 Descending Cleveland Center
Wed 06:00:26 PM 42.4250 -82.8553 274° West 273 314 8,700 -968 Descending Cleveland Center
Wed 06:00:50 PM 42.4333 -82.8819 293° West 287 330 8,300 -677 Descending Cleveland Center
Wed 06:01:28 PM 42.4597 -82.9503 298° West 285 328 8,000 -290 Descending Cleveland Center
Wed 06:01:52 PM 42.4686 -82.9767 295° West 284 327 8,000  Level Cleveland Center
Wed 06:02:28 PM 42.4944 -83.0483 296° West 278 320 8,000  Level Cleveland Center
Wed 06:02:55 PM 42.4997 -83.0717 287° West 280 322 8,000  Level Cleveland Center
Wed 06:03:29 PM 42.4892 -83.1467 259° West 274 315 8,000 -968 Level Cleveland Center
Wed 06:03:57 PM 42.4667 -83.1739 222° Southwest 268 308 7,000 -2,032 Descending Cleveland Center
Wed 06:04:31 PM 42.4278 -83.2089 214° Southwest 269 310 5,900 -1,905 Descending Cleveland Center
Wed 06:05:00 PM 42.4003 -83.2258 204° Southwest 273 314 5,000 -1,855 Descending Cleveland Center
Wed 06:05:26 PM 42.3681 -83.2517 211° Southwest 264 304 4,200 -1,355 Descending Cleveland Center
Wed 06:06:02 PM 42.3358 -83.2711 204° Southwest 265 305 3,600 -806 Descending Cleveland Center
Wed 06:06:33 PM 42.3014 -83.2986 211° Southwest 216 249 3,300 -857 Descending Cleveland Center
Wed 06:07:05 PM 42.2822 -83.3119 207° Southwest 234 269 2,700 -1,672 Descending Cleveland Center
Wed 06:07:34 PM 42.2572 -83.3292 207° Southwest 156 180 1,600 -1,645 Descending Cleveland Center
Wed 06:08:07 PM 42.2411 -83.3406 208° Southwest 174 200 1,000 -625 Descending Cleveland Center
Wed 06:09:10 PM 42.2125 -83.3542 199° South 152 175 600 -381 Descending Cleveland Center

Login

Don't have an account? Register now (free) for customized features, flight alerts, and more!